createdAt,value
2023-04-27T05:00:22.499Z,3.75
2023-04-27T05:10:09.151Z,3.88
2023-04-27T05:15:02.342Z,4.75
2023-04-27T05:17:28.901Z,4.32
2023-04-27T05:19:55.475Z,3.85
2023-04-27T05:22:22.022Z,4.43
2023-04-27T05:24:48.813Z,3.88
2023-04-27T05:27:15.364Z,3.78
2023-04-27T05:29:42.264Z,3.83
2023-04-27T05:32:09.661Z,4.53
2023-04-27T05:34:36.819Z,3.92
2023-04-27T05:37:03.818Z,4.03
2023-04-27T05:39:30.335Z,4.45
2023-04-27T05:41:57.551Z,3.20
2023-04-27T05:44:28.347Z,3.95
2023-04-27T05:46:56.288Z,4.20
2023-04-27T05:49:23.383Z,4.25
2023-04-27T05:51:50.000Z,4.22
2023-04-27T05:54:16.550Z,3.65
2023-04-27T05:56:43.138Z,2.65
2023-04-27T05:59:09.950Z,3.78
2023-04-27T06:01:36.937Z,3.55
2023-04-27T06:04:04.079Z,3.53
2023-04-27T06:06:35.489Z,3.60
2023-04-27T06:09:02.136Z,3.50
2023-04-27T06:11:28.838Z,2.92
2023-04-27T06:13:55.512Z,3.30
2023-04-27T06:16:22.167Z,3.17
2023-04-27T06:18:50.875Z,3.28
2023-04-27T06:21:18.154Z,2.83
2023-04-27T06:23:44.779Z,2.63
2023-04-27T06:26:11.757Z,2.80
2023-04-27T06:28:38.382Z,2.85
2023-04-27T06:31:06.253Z,2.75
2023-04-27T06:33:33.393Z,2.45
2023-04-27T06:36:01.252Z,2.85
2023-04-27T06:38:28.202Z,2.63
2023-04-27T06:40:54.995Z,2.63
2023-04-27T06:43:21.871Z,2.80
2023-04-27T06:45:48.498Z,2.42
2023-04-27T06:48:15.051Z,2.25
2023-04-27T06:50:41.669Z,2.75
2023-04-27T06:53:08.770Z,3.03
2023-04-27T06:55:35.674Z,2.67
2023-04-27T06:58:03.488Z,2.55
2023-04-27T07:00:30.895Z,2.58
2023-04-27T07:02:57.866Z,2.47
2023-04-27T07:05:24.478Z,2.42
2023-04-27T07:07:51.154Z,2.55
2023-04-27T07:10:17.879Z,2.70
2023-04-27T07:12:44.712Z,2.33
2023-04-27T07:15:11.486Z,2.75
2023-04-27T07:17:38.308Z,2.38
2023-04-27T07:20:06.455Z,2.38
2023-04-27T07:22:33.638Z,2.78
2023-04-27T07:25:00.546Z,2.25
2023-04-27T07:27:27.464Z,2.30
2023-04-27T07:29:54.714Z,2.30
2023-04-27T07:32:22.052Z,2.17
2023-04-27T07:34:53.320Z,2.60
2023-04-27T07:37:21.177Z,2.13
2023-04-27T07:39:50.378Z,2.25
2023-04-27T07:42:17.089Z,2.00
2023-04-27T07:44:43.616Z,2.50
2023-04-27T07:47:10.732Z,2.70
2023-04-27T07:49:38.317Z,2.35
2023-04-27T07:52:05.343Z,2.22
2023-04-27T07:54:31.925Z,2.28
2023-04-27T07:56:58.648Z,2.30
2023-04-27T07:59:25.165Z,2.20
2023-04-27T08:01:51.817Z,2.03
2023-04-27T08:04:18.941Z,1.92
2023-04-27T08:06:47.059Z,1.92
2023-04-27T08:09:14.169Z,2.33
2023-04-27T08:11:40.904Z,2.78
2023-04-27T08:14:13.384Z,2.00
2023-04-27T08:16:43.629Z,2.17
2023-04-27T08:19:11.054Z,2.00
2023-04-27T08:21:38.396Z,2.13
2023-04-27T08:24:06.501Z,1.88
2023-04-27T08:26:33.761Z,2.20
2023-04-27T08:29:01.973Z,2.38
2023-04-27T08:31:31.454Z,2.20
2023-04-27T08:33:58.914Z,1.75
2023-04-27T08:36:26.213Z,1.85
2023-04-27T08:38:52.965Z,2.00
2023-04-27T08:41:22.525Z,1.70
2023-04-27T08:43:51.366Z,2.20
2023-04-27T08:46:21.779Z,1.75
2023-04-27T08:48:52.282Z,1.98
2023-04-27T08:51:20.118Z,1.92
2023-04-27T08:53:54.832Z,1.92
2023-04-27T08:56:26.267Z,1.92
2023-04-27T08:58:52.803Z,1.70
2023-04-27T09:01:19.920Z,1.65
2023-04-27T09:03:47.289Z,1.88
2023-04-27T09:06:15.335Z,1.85
2023-04-27T09:08:45.831Z,1.90
2023-04-27T09:11:13.886Z,1.85
2023-04-27T09:13:45.072Z,2.10
2023-04-27T09:16:15.280Z,1.73
2023-04-27T09:18:43.762Z,1.80
2023-04-27T09:21:10.747Z,1.55
2023-04-27T09:23:39.163Z,1.67
2023-04-27T09:26:10.876Z,2.03
2023-04-27T09:28:41.343Z,2.00
2023-04-27T09:31:09.623Z,1.90
2023-04-27T09:33:36.976Z,2.22
2023-04-27T09:36:06.347Z,2.20
2023-04-27T09:38:33.551Z,2.25
2023-04-27T09:41:01.017Z,2.15
2023-04-27T09:43:29.666Z,2.17
2023-04-27T09:45:57.228Z,2.00
2023-04-27T09:48:25.651Z,2.42
2023-04-27T09:50:52.901Z,2.58
2023-04-27T09:53:36.148Z,1.92
2023-04-27T09:56:26.250Z,2.42
2023-04-27T09:59:00.717Z,2.15
2023-04-27T10:01:37.526Z,2.00
2023-04-27T10:04:41.873Z,2.00
2023-04-27T10:07:14.770Z,2.03
2023-04-27T10:09:53.880Z,2.03
2023-04-27T10:12:27.158Z,1.92
2023-04-27T10:14:57.343Z,2.00
2023-04-27T10:17:26.438Z,2.30
2023-04-27T10:19:58.687Z,2.00
2023-04-27T10:22:40.834Z,2.28
2023-04-27T10:25:16.610Z,1.92
2023-04-27T10:27:43.351Z,1.85
2023-04-27T10:30:12.070Z,1.95
2023-04-27T10:32:38.694Z,2.47
2023-04-27T10:35:09.419Z,2.10
2023-04-27T10:37:41.483Z,2.00
2023-04-27T10:40:15.454Z,2.40
2023-04-27T10:42:42.404Z,2.05
2023-04-27T10:45:09.509Z,2.00
2023-04-27T10:47:41.274Z,1.90
2023-04-27T10:50:16.085Z,2.08
2023-04-27T10:52:44.275Z,2.10
2023-04-27T10:55:18.557Z,2.03
2023-04-27T10:57:55.972Z,2.05
2023-04-27T11:00:33.650Z,1.98
2023-04-27T11:03:20.646Z,2.00
2023-04-27T11:05:49.224Z,1.90
2023-04-27T11:08:18.509Z,2.10
2023-04-27T11:10:46.484Z,1.90
2023-04-27T11:13:18.126Z,2.20
2023-04-27T11:15:48.951Z,2.00
2023-04-27T11:18:17.779Z,2.10
2023-04-27T11:21:10.729Z,2.20
2023-04-27T11:23:40.981Z,2.25
2023-04-27T11:26:19.321Z,2.00
2023-04-27T11:29:23.915Z,1.77
2023-04-27T11:31:51.991Z,2.10
2023-04-27T11:34:22.797Z,2.28
2023-04-27T11:37:17.347Z,2.20
2023-04-27T11:39:45.883Z,2.22
2023-04-27T11:42:23.995Z,2.15
2023-04-27T11:45:00.216Z,2.45
2023-04-27T11:47:28.721Z,2.17
2023-04-27T11:49:57.751Z,2.05
2023-04-27T11:52:35.533Z,1.98
2023-04-27T11:55:08.469Z,2.00
2023-04-27T11:57:36.608Z,2.13
2023-04-27T12:00:11.317Z,1.70
2023-04-27T12:02:38.709Z,2.05
2023-04-27T12:05:07.606Z,1.95
2023-04-27T12:07:34.407Z,2.30
2023-04-27T12:10:01.293Z,2.20
2023-04-27T12:12:27.940Z,2.13
2023-04-27T12:14:54.583Z,2.25
2023-04-27T12:17:21.340Z,2.35
2023-04-27T12:19:48.012Z,2.00
2023-04-27T12:22:14.548Z,2.55
2023-04-27T12:24:41.156Z,1.88
2023-04-27T12:27:08.390Z,2.22
2023-04-27T12:29:35.154Z,1.95
2023-04-27T12:32:01.715Z,2.03
2023-04-27T12:34:31.494Z,2.20
2023-04-27T12:36:59.089Z,2.20
2023-04-27T12:39:25.589Z,2.33
2023-04-27T12:41:53.389Z,2.50
2023-04-27T12:44:21.295Z,2.65
2023-04-27T12:46:48.453Z,2.30
2023-04-27T12:49:15.287Z,2.65
2023-04-27T12:51:42.171Z,2.10
2023-04-27T12:54:10.659Z,2.78
2023-04-27T12:56:37.256Z,2.35
2023-04-27T12:59:04.358Z,2.22
2023-04-27T13:01:31.682Z,2.22
2023-04-27T13:04:03.274Z,2.60
2023-04-27T13:06:31.282Z,2.38
2023-04-27T13:08:58.958Z,2.38
2023-04-27T13:11:27.567Z,3.08
2023-04-27T13:13:55.252Z,2.97
2023-04-27T13:16:25.098Z,2.78
2023-04-27T13:18:56.145Z,2.70
2023-04-27T13:21:23.338Z,2.80
2023-04-27T13:23:51.206Z,2.53
2023-04-27T13:26:17.781Z,3.20
2023-04-27T13:28:44.324Z,2.70
2023-04-27T13:31:11.153Z,2.75
2023-04-27T13:33:43.133Z,2.60
2023-04-27T13:36:11.393Z,2.45
2023-04-27T13:38:38.052Z,2.60
2023-04-27T13:41:04.951Z,2.90
2023-04-27T13:43:31.797Z,3.00
2023-04-27T13:46:01.599Z,3.25
2023-04-27T13:48:29.033Z,2.85
2023-04-27T13:50:55.934Z,2.88
2023-04-27T13:53:25.851Z,2.70
2023-04-27T13:55:57.194Z,2.30
2023-04-27T13:58:26.089Z,2.67
2023-04-27T14:00:53.244Z,3.10
2023-04-27T14:03:20.287Z,2.97
2023-04-27T14:05:48.940Z,2.92
2023-04-27T14:08:15.878Z,2.88
2023-04-27T14:10:42.951Z,2.40
2023-04-27T14:13:09.600Z,2.55
2023-04-27T14:15:37.407Z,2.63
2023-04-27T14:18:06.376Z,2.50
2023-04-27T14:20:34.581Z,2.90
2023-04-27T14:23:01.600Z,3.00
2023-04-27T14:25:32.584Z,2.78
2023-04-27T14:28:01.420Z,3.22
2023-04-27T14:30:28.224Z,3.17
2023-04-27T14:32:55.071Z,3.20
2023-04-27T14:35:23.550Z,2.67
2023-04-27T14:40:19.873Z,3.13
2023-04-27T14:42:47.071Z,3.35
2023-04-27T14:45:13.765Z,3.38
2023-04-27T14:47:40.386Z,3.63
2023-04-27T14:50:07.583Z,3.33
2023-04-27T14:52:34.292Z,3.38
2023-04-27T14:55:00.931Z,2.83
2023-04-27T14:57:27.804Z,3.20
2023-04-27T14:59:54.603Z,3.17
2023-04-27T15:02:21.191Z,3.45
2023-04-27T15:04:47.839Z,3.30
2023-04-27T15:07:14.416Z,3.25
2023-04-27T15:09:41.049Z,2.85
2023-04-27T15:12:08.092Z,3.20
2023-04-27T15:14:34.827Z,2.83
2023-04-27T15:17:01.339Z,3.85
2023-04-27T15:19:27.913Z,2.92
2023-04-27T15:21:54.554Z,3.28
2023-04-27T15:24:21.079Z,3.00
2023-04-27T15:26:48.534Z,3.00
2023-04-27T15:29:15.415Z,2.80
2023-04-27T15:31:42.350Z,3.22
2023-04-27T15:34:08.865Z,3.33
2023-04-27T15:36:35.477Z,3.50
2023-04-27T15:39:01.975Z,2.90
2023-04-27T15:41:28.513Z,3.40
2023-04-27T15:43:55.172Z,3.05
2023-04-27T15:46:21.730Z,3.20
2023-04-27T15:48:48.275Z,2.92
2023-04-27T15:51:15.106Z,3.05
2023-04-27T15:53:41.868Z,3.50
2023-04-27T15:56:08.536Z,3.38
2023-04-27T15:58:35.072Z,2.85
2023-04-27T16:01:01.767Z,3.50
2023-04-27T16:03:28.372Z,3.30
2023-04-27T16:05:54.975Z,3.83
2023-04-27T16:08:22.505Z,2.70
2023-04-27T16:10:50.135Z,3.30
2023-04-27T16:13:17.815Z,3.15
2023-04-27T16:15:44.816Z,3.25
2023-04-27T16:18:12.446Z,3.20
2023-04-27T16:20:39.017Z,2.83
2023-04-27T16:23:05.978Z,2.72
2023-04-27T16:25:32.715Z,3.88
2023-04-27T16:27:59.712Z,3.30
2023-04-27T16:30:26.302Z,3.30
2023-04-27T16:32:53.121Z,3.22
2023-04-27T16:35:19.724Z,3.53
2023-04-27T16:37:46.230Z,3.63
2023-04-27T16:40:13.142Z,3.65
2023-04-27T16:42:39.706Z,3.65
2023-04-27T16:45:09.100Z,3.60
2023-04-27T16:47:37.412Z,3.83
2023-04-27T16:50:04.497Z,3.30
2023-04-27T16:52:32.527Z,3.20
2023-04-27T16:54:59.037Z,3.00
2023-04-27T16:57:25.881Z,3.35
2023-04-27T16:59:52.426Z,3.40
2023-04-27T17:02:25.339Z,3.92
2023-04-27T17:04:53.926Z,3.72
2023-04-27T17:07:20.731Z,3.00
2023-04-27T17:09:47.262Z,3.88
2023-04-27T17:12:14.933Z,3.83
2023-04-27T17:14:42.811Z,3.58
2023-04-27T17:17:10.350Z,3.55
2023-04-27T17:19:39.123Z,3.85
2023-04-27T17:22:07.294Z,3.90
2023-04-27T17:24:33.823Z,3.85
2023-04-27T17:27:00.339Z,3.63
2023-04-27T17:29:26.877Z,3.63
2023-04-27T17:31:53.440Z,3.55
2023-04-27T17:34:20.002Z,3.38
2023-04-27T17:36:46.583Z,3.20
2023-04-27T17:39:14.648Z,3.67
2023-04-27T17:41:41.800Z,4.10
2023-04-27T17:44:08.377Z,3.58
2023-04-27T17:46:37.996Z,3.22
2023-04-27T17:49:04.664Z,3.20
2023-04-27T17:51:33.124Z,3.35
2023-04-27T17:53:59.843Z,3.17
2023-04-27T17:56:26.728Z,3.70
2023-04-27T17:58:53.282Z,3.72
2023-04-27T18:01:19.880Z,3.70
2023-04-27T18:03:46.657Z,3.30
2023-04-27T18:06:13.312Z,3.08
2023-04-27T18:08:40.003Z,3.70
2023-04-27T18:11:06.948Z,3.88
2023-04-27T18:13:33.644Z,3.72
2023-04-27T18:16:00.229Z,3.85
2023-04-27T18:18:27.373Z,3.50
2023-04-27T18:20:53.905Z,3.75
2023-04-27T18:23:20.945Z,3.17
2023-04-27T18:25:47.747Z,3.90
2023-04-27T18:28:14.424Z,3.42
2023-04-27T18:30:41.516Z,3.63
2023-04-27T18:33:08.417Z,3.80
2023-04-27T18:35:35.382Z,3.58
2023-04-27T18:38:03.350Z,3.70
2023-04-27T18:40:30.191Z,3.92
2023-04-27T18:42:56.751Z,3.53
2023-04-27T18:45:23.389Z,3.72
2023-04-27T18:47:50.554Z,3.30
2023-04-27T18:50:17.471Z,3.72
2023-04-27T18:52:44.032Z,3.92
2023-04-27T18:55:10.850Z,3.28
2023-04-27T18:57:37.530Z,3.88
2023-04-27T19:00:08.322Z,4.03
2023-04-27T19:02:35.557Z,3.33
2023-04-27T19:07:34.151Z,3.83
2023-04-27T19:10:00.899Z,3.53
2023-04-27T19:12:27.619Z,4.07
2023-04-27T19:14:55.526Z,3.50
2023-04-27T19:17:22.273Z,3.90
2023-04-27T19:19:48.960Z,3.72
2023-04-27T19:22:15.673Z,3.70
2023-04-27T19:24:42.208Z,3.60
2023-04-27T19:27:09.255Z,3.58
2023-04-27T19:29:55.659Z,3.67
2023-04-27T19:32:25.325Z,3.40
2023-04-27T19:34:51.994Z,3.30
2023-04-27T19:37:18.537Z,4.03
2023-04-27T19:39:45.285Z,3.72
2023-04-27T19:42:11.868Z,3.95
2023-04-27T19:44:38.380Z,3.55
2023-04-27T19:47:05.085Z,4.03
2023-04-27T19:49:33.156Z,3.42
2023-04-27T19:52:00.525Z,3.70
2023-04-27T19:54:27.133Z,3.25
2023-04-27T19:56:54.437Z,3.45
2023-04-27T19:59:21.168Z,3.67
2023-04-27T20:01:48.547Z,3.38
2023-04-27T20:04:15.658Z,3.53
2023-04-27T20:06:43.318Z,3.70
2023-04-27T20:09:10.761Z,3.67
2023-04-27T20:11:37.439Z,3.17
2023-04-27T20:14:03.968Z,3.33
2023-04-27T20:16:31.337Z,3.45
2023-04-27T20:18:57.937Z,3.40
2023-04-27T20:21:24.501Z,3.28
2023-04-27T20:23:51.114Z,3.80
2023-04-27T20:26:17.819Z,3.78
2023-04-27T20:28:44.319Z,4.00
2023-04-27T20:31:11.049Z,3.47
2023-04-27T20:33:40.771Z,3.22
2023-04-27T20:36:17.308Z,3.72
2023-04-27T20:38:47.433Z,3.33
2023-04-27T20:41:14.390Z,3.35
2023-04-27T20:43:41.214Z,3.58
2023-04-27T20:46:08.242Z,3.75
2023-04-27T20:48:35.008Z,3.55
2023-04-27T20:51:02.076Z,3.38
2023-04-27T20:53:28.678Z,3.78
2023-04-27T20:55:55.362Z,3.15
2023-04-27T20:58:21.939Z,3.33
2023-04-27T21:00:48.682Z,3.88
2023-04-27T21:03:15.465Z,3.58
2023-04-27T21:05:42.321Z,3.70
2023-04-27T21:08:11.591Z,3.80
2023-04-27T21:10:38.104Z,3.58
2023-04-27T21:13:04.669Z,4.00
2023-04-27T21:15:31.287Z,3.50
2023-04-27T21:17:57.882Z,3.25
2023-04-27T21:20:24.529Z,3.92
2023-04-27T21:22:51.090Z,4.00
2023-04-27T21:25:17.830Z,3.63
2023-04-27T21:27:44.637Z,3.42
2023-04-27T21:30:11.708Z,3.28
2023-04-27T21:32:38.539Z,3.80
2023-04-27T21:35:07.422Z,3.53
2023-04-27T21:37:34.467Z,3.05
2023-04-27T21:40:01.572Z,3.75
2023-04-27T21:42:28.477Z,3.70
2023-04-27T21:44:57.202Z,3.67
2023-04-27T21:47:24.049Z,3.53
2023-04-27T21:49:52.500Z,2.65
2023-04-27T21:52:21.393Z,4.00
2023-04-27T21:54:47.941Z,3.92
2023-04-27T21:57:14.570Z,3.58
2023-04-27T21:59:41.266Z,3.20
2023-04-27T22:02:07.988Z,3.30
2023-04-27T22:04:36.116Z,3.50
2023-04-27T22:07:02.774Z,3.38
2023-04-27T22:09:29.292Z,3.60
2023-04-27T22:11:55.806Z,3.70
2023-04-27T22:14:22.318Z,3.22
2023-04-27T22:16:49.668Z,3.42
2023-04-27T22:19:17.896Z,3.22
2023-04-27T22:21:44.902Z,3.90
2023-04-27T22:24:11.437Z,3.58
2023-04-27T22:26:38.070Z,3.78
2023-04-27T22:29:04.717Z,3.47
2023-04-27T22:31:32.515Z,3.20
2023-04-27T22:33:59.218Z,3.42
2023-04-27T22:36:25.873Z,3.63
2023-04-27T22:38:52.425Z,3.17
2023-04-27T22:41:20.671Z,3.53
2023-04-27T22:43:47.116Z,3.53
2023-04-27T22:46:13.718Z,3.33
2023-04-27T22:48:40.920Z,3.33
2023-04-27T22:51:08.889Z,3.70
2023-04-27T22:53:35.382Z,3.45
2023-04-27T22:56:01.857Z,3.83
2023-04-27T22:58:28.376Z,4.00
2023-04-27T23:00:54.916Z,3.63
2023-04-27T23:03:21.936Z,3.40
2023-04-27T23:05:48.525Z,3.50
2023-04-27T23:08:16.981Z,3.60
2023-04-27T23:10:43.477Z,3.35
2023-04-27T23:13:11.275Z,4.20
2023-04-27T23:15:41.937Z,3.17
2023-04-27T23:18:08.469Z,3.45
2023-04-27T23:20:34.976Z,3.35
2023-04-27T23:23:01.512Z,3.35
2023-04-27T23:25:28.217Z,3.55
2023-04-27T23:27:54.748Z,3.85
2023-04-27T23:30:22.056Z,3.70
2023-04-27T23:32:48.732Z,3.58
2023-04-27T23:35:15.310Z,4.20
2023-04-27T23:37:41.858Z,3.50
2023-04-27T23:40:08.993Z,3.88
2023-04-27T23:42:35.574Z,3.97
2023-04-27T23:45:04.166Z,4.15
2023-04-27T23:47:31.192Z,3.40
2023-04-27T23:49:57.890Z,4.25
2023-04-27T23:52:24.385Z,3.83
2023-04-27T23:54:51.392Z,3.92
2023-04-27T23:57:17.898Z,4.03
2023-04-27T23:59:44.421Z,4.30
